Time;durP1;ratioP1;P1;durP2;ratioP2;P2;SDS_P1;SDS_P2;PMS_P1;PMS_P2;Temp;Humidity;BMP_temperature;BMP_pressure;BME280_temperature;BME280_humidity;BME280_pressure;Samples;Min_cycle;Max_cycle;Signal;HPM_P1;HPM_P2
2021/07/24 00:00:57;;;;;;;;;;;;;;;20.89;75.12;100189.89;1697300;82;20152;-90
2021/07/24 00:03:23;;;;;;;;;;;;;;;20.89;75.28;100184.52;1697423;83;20269;-89
2021/07/24 00:05:49;;;;;;;;;;;;;;;20.88;75.04;100188.24;1688532;83;20491;-87
2021/07/24 00:08:15;;;;;;;;;;;;;;;20.86;75.16;100201.08;1702841;83;22023;-88
2021/07/24 00:10:41;;;;;;;;;;;;;;;20.83;75.74;100194.81;1701513;82;20227;-87
2021/07/24 00:13:09;;;;;;;;;;;;;;;20.80;75.68;100195.56;1695940;83;20599;-87
2021/07/24 00:15:34;;;;;;;;;;;;;;;20.71;75.65;100198.73;1690043;82;20205;-87
2021/07/24 00:18:00;;;;;;;;;;;;;;;20.67;75.82;100195.69;1686696;82;20121;-89
2021/07/24 00:20:26;;;;;;;;;;;;;;;20.65;76.29;100195.09;1702162;82;21215;-88
2021/07/24 00:22:51;;;;;;;;;;;;;;;20.61;76.73;100196.55;1698866;83;20294;-88
2021/07/24 00:25:17;;;;;;;;;;;;;;;20.54;76.84;100197.11;1672745;83;20146;-88
2021/07/24 00:27:42;;;;;;;;;;;;;;;20.51;76.99;100197.06;1701752;82;20171;-89
2021/07/24 00:30:08;;;;;;;;;;;;;;;20.55;76.76;100200.11;1702546;83;20808;-87
2021/07/24 00:32:34;;;;;;;;;;;;;;;20.45;77.14;100201.42;1694155;83;21138;-88
2021/07/24 00:35:01;;;;;;;;;;;;;;;20.47;77.05;100199.06;1704839;82;20166;-87
2021/07/24 00:37:26;;;;;;;;;;;;;;;20.56;76.71;100200.42;1698732;83;20163;-89
2021/07/24 00:39:53;;;;;;;;;;;;;;;20.62;76.12;100200.34;1705880;82;20164;-87
2021/07/24 00:42:26;;;;;;;;;;;;;;;20.68;75.82;100204.05;1703906;83;20175;-87
2021/07/24 00:44:54;;;;;;;;;;;;;;;20.72;75.51;100195.02;1698881;82;21982;-88
2021/07/24 00:47:26;;;;;;;;;;;;;;;20.63;76.15;100199.81;1698683;82;20293;-87
2021/07/24 00:49:55;;;;;;;;;;;;;;;20.56;76.49;100200.42;1699237;83;20136;-87
2021/07/24 00:52:21;;;;;;;;;;;;;;;20.43;77.05;100192.80;1698154;82;20359;-88
2021/07/24 00:54:47;;;;;;;;;;;;;;;20.35;77.44;100191.70;1700410;82;20133;-88
2021/07/24 00:57:13;;;;;;;;;;;;;;;20.31;77.80;100194.55;1694999;83;21083;-88
2021/07/24 00:59:39;;;;;;;;;;;;;;;20.24;78.01;100196.45;1686313;82;20760;-86
2021/07/24 01:02:04;;;;;;;;;;;;;;;20.23;78.11;100201.00;1696015;83;20194;-88
2021/07/24 01:04:31;;;;;;;;;;;;;;;20.20;78.25;100192.59;1691911;83;20164;-86
2021/07/24 01:06:57;;;;;;;;;;;;;;;20.17;78.17;100189.00;1703388;82;20265;-89
2021/07/24 01:09:24;;;;;;;;;;;;;;;20.15;78.28;100193.23;1693410;83;21918;-86
2021/07/24 01:11:50;;;;;;;;;;;;;;;20.14;78.25;100190.78;1700461;82;20223;-91
2021/07/24 01:14:17;;;;;;;;;;;;;;;20.07;78.49;100194.33;1690949;82;20289;-86
2021/07/24 01:16:45;;;;;;;;;;;;;;;20.03;78.92;100194.45;1693713;82;20282;-89
2021/07/24 01:19:11;;;;;;;;;;;;;;;20.02;78.85;100193.33;1703070;83;20163;-89
2021/07/24 01:21:37;;;;;;;;;;;;;;;19.94;79.23;100189.05;1663405;83;21479;-87
2021/07/24 01:24:03;;;;;;;;;;;;;;;19.85;79.69;100193.84;1693690;82;20133;-88
2021/07/24 01:26:36;;;;;;;;;;;;;;;19.81;79.90;100194.48;1691522;83;20483;-86
2021/07/24 01:29:04;;;;;;;;;;;;;;;19.82;80.22;100194.27;1700823;82;20186;-86
2021/07/24 01:31:29;;;;;;;;;;;;;;;19.87;79.69;100189.11;1703441;82;20246;-89
2021/07/24 01:33:55;;;;;;;;;;;;;;;19.88;80.26;100195.27;1701709;83;21111;-88
2021/07/24 01:36:22;;;;;;;;;;;;;;;19.93;79.67;100192.76;1692693;83;20507;-90
2021/07/24 01:38:47;;;;;;;;;;;;;;;19.99;79.18;100189.21;1690574;83;20251;-86
2021/07/24 01:41:13;;;;;;;;;;;;;;;19.97;79.27;100191.30;1696651;82;20424;-89
2021/07/24 01:43:40;;;;;;;;;;;;;;;19.96;79.26;100185.63;1699081;82;20176;-86
2021/07/24 01:46:05;;;;;;;;;;;;;;;19.99;79.19;100186.53;1684443;82;20988;-87
2021/07/24 01:48:41;;;;;;;;;;;;;;;19.97;79.21;100180.58;1706407;83;20192;-87
2021/07/24 01:53:53;;;;;;;;;;;;;;;19.73;79.70;100185.66;1688942;83;20161;-87
2021/07/24 01:56:20;;;;;;;;;;;;;;;19.69;79.70;100183.09;1706820;83;20103;-86
2021/07/24 01:58:46;;;;;;;;;;;;;;;19.69;79.76;100184.44;1695781;82;21113;-86
2021/07/24 02:01:12;;;;;;;;;;;;;;;19.64;80.11;100181.59;1699673;83;20120;-87
2021/07/24 02:03:53;;;;;;;;;;;;;;;19.64;80.00;100180.75;1688413;82;21058;-87
2021/07/24 02:06:19;;;;;;;;;;;;;;;19.62;79.91;100175.61;1703539;82;20644;-86
2021/07/24 02:08:47;;;;;;;;;;;;;;;19.56;80.38;100175.16;1697000;82;20153;-87
2021/07/24 02:11:12;;;;;;;;;;;;;;;19.57;80.36;100180.80;1701333;83;21081;-91
2021/07/24 02:13:38;;;;;;;;;;;;;;;19.54;80.38;100179.88;1700101;82;20797;-84
2021/07/24 02:16:06;;;;;;;;;;;;;;;19.46;80.68;100173.45;1695042;82;20133;-89
2021/07/24 02:18:32;;;;;;;;;;;;;;;19.48;80.91;100176.72;1694851;83;20360;-89
2021/07/24 02:20:57;;;;;;;;;;;;;;;19.42;81.03;100172.22;1696399;83;20126;-92
2021/07/24 02:23:23;;;;;;;;;;;;;;;19.43;81.06;100174.69;1696638;83;21070;-91
2021/07/24 02:25:48;;;;;;;;;;;;;;;19.44;80.95;100174.19;1696170;83;20464;-90
2021/07/24 02:28:14;;;;;;;;;;;;;;;19.48;80.63;100183.42;1697625;82;20127;-89
2021/07/24 02:30:40;;;;;;;;;;;;;;;19.57;80.12;100180.80;1699793;83;20669;-90
2021/07/24 02:33:06;;;;;;;;;;;;;;;19.62;79.94;100176.13;1708039;83;20178;-90
2021/07/24 02:35:31;;;;;;;;;;;;;;;19.68;79.69;100178.77;1703280;82;21144;-90
2021/07/24 02:37:57;;;;;;;;;;;;;;;19.73;79.55;100176.78;1699557;82;20150;-90
2021/07/24 02:40:24;;;;;;;;;;;;;;;19.76;79.22;100173.67;1702592;83;20136;-90
2021/07/24 02:42:50;;;;;;;;;;;;;;;19.83;78.82;100168.31;1706901;82;20089;-89
2021/07/24 02:45:15;;;;;;;;;;;;;;;19.87;78.63;100172.19;1695162;82;20184;-90
2021/07/24 02:47:41;;;;;;;;;;;;;;;19.91;78.29;100168.05;1699090;82;21072;-91
2021/07/24 02:50:09;;;;;;;;;;;;;;;19.76;78.83;100171.52;1702379;82;20184;-90
2021/07/24 02:52:34;;;;;;;;;;;;;;;19.66;79.38;100170.66;1687203;83;20219;-89
2021/07/24 02:55:00;;;;;;;;;;;;;;;19.62;79.64;100167.56;1701705;82;20132;-90
2021/07/24 02:57:27;;;;;;;;;;;;;;;19.58;79.78;100160.17;1703166;82;20158;-90
2021/07/24 02:59:53;;;;;;;;;;;;;;;19.55;79.93;100164.12;1705366;82;21049;-89
2021/07/24 03:02:18;;;;;;;;;;;;;;;19.56;79.98;100163.10;1700760;82;20135;-91
2021/07/24 03:04:47;;;;;;;;;;;;;;;19.55;80.21;100162.27;1692176;82;20128;-90
2021/07/24 03:07:12;;;;;;;;;;;;;;;19.53;80.25;100155.50;1701121;82;20167;-91
2021/07/24 03:09:40;;;;;;;;;;;;;;;19.51;80.59;100156.20;1694320;83;20153;-90
2021/07/24 03:12:06;;;;;;;;;;;;;;;19.49;80.68;100156.95;1693821;83;21220;-89
2021/07/24 03:14:33;;;;;;;;;;;;;;;19.49;80.65;100150.25;1690153;83;20172;-89
2021/07/24 03:16:58;;;;;;;;;;;;;;;19.49;80.63;100158.29;1696683;83;20174;-89
2021/07/24 03:19:26;;;;;;;;;;;;;;;19.53;80.56;100158.17;1694942;83;20216;-90
2021/07/24 03:21:55;;;;;;;;;;;;;;;19.52;80.41;100160.54;1698351;83;20200;-90
2021/07/24 03:24:20;;;;;;;;;;;;;;;19.53;80.23;100158.17;1701979;82;21048;-90
2021/07/24 03:26:46;;;;;;;;;;;;;;;19.51;80.33;100160.23;1702725;83;20197;-90
2021/07/24 03:29:11;;;;;;;;;;;;;;;19.51;80.22;100158.39;1682961;83;20178;-92
2021/07/24 03:31:37;;;;;;;;;;;;;;;19.60;80.13;100162.95;1682351;83;20127;-91
2021/07/24 03:34:02;;;;;;;;;;;;;;;19.63;80.01;100158.50;1700471;83;20228;-90
2021/07/24 03:36:28;;;;;;;;;;;;;;;19.67;79.87;100162.41;1695078;82;21023;-90
2021/07/24 03:38:58;;;;;;;;;;;;;;;19.67;79.83;100161.06;1696293;82;20800;-89
2021/07/24 03:41:28;;;;;;;;;;;;;;;19.69;79.90;100157.64;1681073;82;20194;-90
2021/07/24 03:43:56;;;;;;;;;;;;;;;19.78;79.64;100161.42;1695175;82;20116;-92
2021/07/24 03:46:24;;;;;;;;;;;;;;;19.81;79.46;100154.29;1700583;83;20182;-90
2021/07/24 03:48:49;;;;;;;;;;;;;;;19.80;79.61;100157.50;1700558;82;20147;-90
2021/07/24 03:51:15;;;;;;;;;;;;;;;19.73;80.04;100158.86;1709394;82;20558;-89
2021/07/24 03:53:42;;;;;;;;;;;;;;;19.66;80.45;100158.08;1704094;83;20257;-89
2021/07/24 03:56:19;;;;;;;;;;;;;;;19.55;81.24;100154.75;1700957;82;20179;-89
2021/07/24 03:58:46;;;;;;;;;;;;;;;19.50;81.68;100155.92;1693380;82;20208;-90
2021/07/24 04:01:12;;;;;;;;;;;;;;;19.39;82.47;100156.09;1691775;83;21959;-95
2021/07/24 04:03:37;;;;;;;;;;;;;;;19.35;82.64;100154.33;1695366;82;20199;-90
2021/07/24 04:06:04;;;;;;;;;;;;;;;19.36;82.83;100153.31;1703295;82;20166;-87
2021/07/24 04:08:31;;;;;;;;;;;;;;;19.42;83.19;100156.16;1698339;83;20206;-89
2021/07/24 04:10:58;;;;;;;;;;;;;;;19.46;83.31;100154.70;1686951;83;20206;-89
2021/07/24 04:13:24;;;;;;;;;;;;;;;19.47;83.14;100160.38;1683456;83;21449;-90
2021/07/24 04:15:49;;;;;;;;;;;;;;;19.51;83.23;100162.91;1693696;83;20149;-91
2021/07/24 04:18:15;;;;;;;;;;;;;;;19.60;82.27;100174.20;1704345;82;20155;-90
2021/07/24 04:20:40;;;;;;;;;;;;;;;19.68;81.67;100172.06;1695169;83;20450;-89
2021/07/24 04:23:06;;;;;;;;;;;;;;;19.74;81.02;100168.52;1697906;82;20141;-90
2021/07/24 04:25:32;;;;;;;;;;;;;;;19.74;81.13;100171.20;1699685;82;21199;-92
2021/07/24 04:27:57;;;;;;;;;;;;;;;19.75;80.77;100177.41;1696903;82;20147;-92
2021/07/24 04:30:23;;;;;;;;;;;;;;;19.71;81.03;100171.63;1701628;82;20163;-89
2021/07/24 04:32:48;;;;;;;;;;;;;;;19.79;80.66;100171.11;1695991;82;20440;-84
2021/07/24 04:35:14;;;;;;;;;;;;;;;19.78;80.49;100168.12;1696787;82;20434;-84
2021/07/24 04:37:40;;;;;;;;;;;;;;;19.81;80.35;100173.89;1684066;83;21007;-86
2021/07/24 04:40:09;;;;;;;;;;;;;;;19.87;79.97;100177.55;1699446;82;20483;-87
2021/07/24 04:42:37;;;;;;;;;;;;;;;19.90;79.69;100178.45;1708242;83;20161;-87
2021/07/24 04:45:05;;;;;;;;;;;;;;;19.93;79.70;100175.34;1701380;82;20333;-88
2021/07/24 04:47:32;;;;;;;;;;;;;;;19.98;79.47;100176.02;1707297;82;20548;-87
2021/07/24 04:50:00;;;;;;;;;;;;;;;20.02;79.09;100171.35;1664168;83;21753;-87
2021/07/24 04:52:29;;;;;;;;;;;;;;;20.08;78.97;100175.84;1704959;83;20178;-87
2021/07/24 04:54:59;;;;;;;;;;;;;;;20.14;79.06;100176.03;1704375;82;21235;-93
2021/07/24 04:57:25;;;;;;;;;;;;;;;20.14;77.86;100177.38;1707607;83;20183;-87
2021/07/24 04:59:52;;;;;;;;;;;;;;;20.18;77.78;100175.38;1696084;82;20139;-88
2021/07/24 05:02:18;;;;;;;;;;;;;;;20.24;77.66;100172.31;1663864;84;21492;-87
2021/07/24 05:04:49;;;;;;;;;;;;;;;20.31;77.40;100175.77;1698342;82;20234;-88
2021/07/24 05:07:20;;;;;;;;;;;;;;;20.36;77.24;100178.61;1694230;83;20117;-91
2021/07/24 05:09:46;;;;;;;;;;;;;;;20.38;76.42;100173.83;1700762;82;20739;-87
2021/07/24 05:12:11;;;;;;;;;;;;;;;20.49;76.57;100177.66;1699884;82;20183;-88
2021/07/24 05:14:42;;;;;;;;;;;;;;;20.53;75.12;100182.08;1678453;83;21043;-87
2021/07/24 05:17:11;;;;;;;;;;;;;;;20.61;75.00;100177.77;1696708;82;20265;-94
2021/07/24 05:19:45;;;;;;;;;;;;;;;20.66;75.23;100181.97;1692967;83;20221;-91
2021/07/24 05:22:12;;;;;;;;;;;;;;;20.76;74.42;100178.25;1673438;83;20615;-87
2021/07/24 05:24:38;;;;;;;;;;;;;;;20.78;74.62;100176.16;1686240;82;20207;-89
2021/07/24 05:27:04;;;;;;;;;;;;;;;20.83;74.46;100181.39;1699802;82;21312;-88
2021/07/24 05:29:30;;;;;;;;;;;;;;;20.88;74.31;100177.50;1694143;82;20203;-88
2021/07/24 05:31:58;;;;;;;;;;;;;;;21.01;73.79;100180.05;1704434;82;20183;-87
2021/07/24 05:34:24;;;;;;;;;;;;;;;21.07;73.03;100177.81;1698821;82;20227;-87
2021/07/24 05:36:49;;;;;;;;;;;;;;;21.20;72.53;100182.73;1702619;82;20154;-89
2021/07/24 05:39:16;;;;;;;;;;;;;;;21.27;71.88;100184.78;1704166;82;21099;-87
2021/07/24 05:41:42;;;;;;;;;;;;;;;21.31;71.71;100185.45;1695879;83;20174;-87
2021/07/24 05:44:14;;;;;;;;;;;;;;;21.42;70.68;100187.09;1700792;82;20167;-88
2021/07/24 05:46:40;;;;;;;;;;;;;;;21.48;70.44;100183.50;1699378;82;20181;-87
2021/07/24 05:49:08;;;;;;;;;;;;;;;21.57;70.09;100185.38;1707870;82;20202;-87
2021/07/24 05:51:43;;;;;;;;;;;;;;;21.59;70.20;100184.09;1688498;83;22044;-89
2021/07/24 05:54:10;;;;;;;;;;;;;;;21.68;69.92;100180.03;1682416;83;20102;-87
2021/07/24 05:56:40;;;;;;;;;;;;;;;21.75;69.82;100179.11;1699124;82;20147;-87
2021/07/24 05:59:09;;;;;;;;;;;;;;;21.83;69.46;100171.55;1674171;83;20173;-87
2021/07/24 06:01:36;;;;;;;;;;;;;;;21.92;68.93;100175.24;1700553;82;20094;-87
2021/07/24 06:04:08;;;;;;;;;;;;;;;22.02;69.19;100172.28;1701633;83;21044;-89
2021/07/24 06:06:39;;;;;;;;;;;;;;;22.29;66.99;100175.06;1696282;83;20279;-87
2021/07/24 06:09:10;;;;;;;;;;;;;;;22.28;66.79;100166.69;1692376;83;20181;-90
2021/07/24 06:11:38;;;;;;;;;;;;;;;22.34;66.52;100176.55;1704430;82;20197;-87
2021/07/24 06:14:07;;;;;;;;;;;;;;;22.39;65.87;100175.34;1680977;82;20153;-87
2021/07/24 06:16:42;;;;;;;;;;;;;;;22.39;64.84;100172.12;1687957;83;20989;-87
2021/07/24 06:19:13;;;;;;;;;;;;;;;22.39;65.28;100172.12;1703952;82;20477;-87
2021/07/24 06:21:45;;;;;;;;;;;;;;;22.33;64.75;100169.55;1700614;83;20222;-89
2021/07/24 06:24:15;;;;;;;;;;;;;;;22.30;65.11;100169.98;1690262;83;20713;-87
2021/07/24 06:26:44;;;;;;;;;;;;;;;22.47;65.12;100168.80;1698885;82;20114;-88
2021/07/24 06:29:12;;;;;;;;;;;;;;;22.59;65.66;100174.45;1689381;82;21236;-88
2021/07/24 06:31:43;;;;;;;;;;;;;;;22.76;65.10;100171.03;1679925;83;20199;-86
2021/07/24 06:34:10;;;;;;;;;;;;;;;22.88;64.36;100166.98;1682995;84;20221;-86
2021/07/24 06:36:39;;;;;;;;;;;;;;;22.95;63.93;100172.52;1701349;82;20829;-87
2021/07/24 06:39:05;;;;;;;;;;;;;;;23.03;63.47;100167.84;1704595;83;20159;-87
2021/07/24 06:41:34;;;;;;;;;;;;;;;23.07;63.96;100161.73;1696858;83;21108;-87
2021/07/24 06:43:59;;;;;;;;;;;;;;;23.12;64.11;100168.59;1700701;82;20215;-88
2021/07/24 06:46:29;;;;;;;;;;;;;;;23.19;64.18;100172.48;1702662;83;20142;-89
2021/07/24 06:48:56;;;;;;;;;;;;;;;23.24;63.67;100169.08;1701420;83;21286;-88
2021/07/24 06:51:23;;;;;;;;;;;;;;;23.29;63.08;100169.20;1698540;82;20189;-89
2021/07/24 06:53:51;;;;;;;;;;;;;;;23.39;63.15;100161.83;1696030;83;21270;-89
2021/07/24 06:56:21;;;;;;;;;;;;;;;23.46;63.75;100166.52;1703253;82;20603;-92
2021/07/24 06:58:47;;;;;;;;;;;;;;;23.58;62.79;100169.98;1688204;83;20120;-88
2021/07/24 07:01:17;;;;;;;;;;;;;;;23.60;61.75;100167.89;1705972;82;20155;-87
2021/07/24 07:03:48;;;;;;;;;;;;;;;23.62;61.88;100172.49;1710003;82;20179;-87
2021/07/24 07:06:17;;;;;;;;;;;;;;;23.72;62.33;100164.30;1704233;82;20642;-88
2021/07/24 07:08:42;;;;;;;;;;;;;;;23.75;61.97;100169.20;1698552;83;20202;-87
2021/07/24 07:11:09;;;;;;;;;;;;;;;23.75;61.64;100174.06;1700108;82;20173;-87
2021/07/24 07:13:35;;;;;;;;;;;;;;;23.82;61.47;100173.92;1701787;83;20192;-87
2021/07/24 07:16:10;;;;;;;;;;;;;;;23.90;61.37;100174.89;1697559;83;20131;-90
2021/07/24 07:18:37;;;;;;;;;;;;;;;24.00;61.07;100176.94;1704249;82;20997;-87
2021/07/24 07:21:03;;;;;;;;;;;;;;;24.11;60.89;100175.22;1700803;82;20647;-90
2021/07/24 07:23:29;;;;;;;;;;;;;;;24.10;60.20;100182.52;1699550;82;20273;-87
2021/07/24 07:25:56;;;;;;;;;;;;;;;24.12;60.11;100178.22;1695510;82;21148;-87
2021/07/24 07:28:22;;;;;;;;;;;;;;;24.12;59.64;100175.52;1684947;83;20149;-90
2021/07/24 07:30:49;;;;;;;;;;;;;;;24.19;59.69;100176.16;1698444;82;21314;-88
2021/07/24 07:33:20;;;;;;;;;;;;;;;24.28;59.44;100175.22;1692901;83;20222;-88
2021/07/24 07:35:47;;;;;;;;;;;;;;;24.34;59.71;100180.44;1682568;83;20174;-87
2021/07/24 07:38:16;;;;;;;;;;;;;;;24.51;60.40;100182.31;1690740;83;20203;-90
2021/07/24 07:40:43;;;;;;;;;;;;;;;24.60;59.97;100186.26;1698267;82;20170;-88
2021/07/24 07:43:12;;;;;;;;;;;;;;;24.69;59.07;100188.81;1691993;83;22076;-90
2021/07/24 07:45:41;;;;;;;;;;;;;;;24.80;59.10;100193.02;1693431;83;20196;-90
2021/07/24 07:48:07;;;;;;;;;;;;;;;24.93;59.11;100193.98;1702898;83;20155;-87
2021/07/24 07:50:34;;;;;;;;;;;;;;;25.01;59.48;100194.08;1708519;82;20135;-88
2021/07/24 07:53:00;;;;;;;;;;;;;;;25.11;58.55;100193.38;1698419;82;20270;-87
2021/07/24 07:55:25;;;;;;;;;;;;;;;25.15;58.09;100199.92;1694242;83;21104;-88
2021/07/24 07:57:51;;;;;;;;;;;;;;;25.17;58.24;100192.38;1697340;82;20189;-87
2021/07/24 08:00:18;;;;;;;;;;;;;;;25.15;57.86;100198.58;1697998;83;20170;-87
2021/07/24 08:02:55;;;;;;;;;;;;;;;25.18;57.72;100198.08;1696281;82;20244;-87
2021/07/24 08:05:25;;;;;;;;;;;;;;;25.21;57.54;100198.38;1691163;82;20188;-89
2021/07/24 08:07:52;;;;;;;;;;;;;;;25.33;58.03;100190.72;1690551;82;21220;-93
2021/07/24 08:10:21;;;;;;;;;;;;;;;25.16;56.03;100202.38;1702996;83;20231;-88
2021/07/24 08:12:48;;;;;;;;;;;;;;;25.03;54.26;100208.98;1691230;82;20529;-90
2021/07/24 08:15:16;;;;;;;;;;;;;;;24.97;54.11;100209.98;1708417;83;20170;-90
2021/07/24 08:17:43;;;;;;;;;;;;;;;24.85;53.73;100207.93;1703566;82;20503;-90
2021/07/24 08:20:14;;;;;;;;;;;;;;;24.76;54.02;100206.73;1701956;83;21052;-89
2021/07/24 08:22:41;;;;;;;;;;;;;;;24.93;54.83;100203.44;1708948;82;20465;-87
2021/07/24 08:25:08;;;;;;;;;;;;;;;25.02;54.93;100203.29;1701796;82;20151;-87
2021/07/24 08:27:36;;;;;;;;;;;;;;;25.07;55.26;100204.69;1698210;83;20803;-91
2021/07/24 08:30:09;;;;;;;;;;;;;;;25.11;55.26;100204.19;1694721;83;20188;-88
2021/07/24 08:32:42;;;;;;;;;;;;;;;25.24;55.69;100209.23;1694553;82;21345;-93
2021/07/24 08:35:12;;;;;;;;;;;;;;;25.37;55.55;100203.48;1690921;82;20591;-88
2021/07/24 08:37:38;;;;;;;;;;;;;;;25.34;55.41;100205.34;1683721;83;20470;-89
2021/07/24 08:40:05;;;;;;;;;;;;;;;25.39;55.75;100197.27;1687158;83;20167;-90
2021/07/24 08:42:44;;;;;;;;;;;;;;;25.44;55.60;100195.16;1646870;83;20155;-87
2021/07/24 08:45:13;;;;;;;;;;;;;;;25.24;54.77;100195.72;1698766;83;20358;-92
2021/07/24 08:47:39;;;;;;;;;;;;;;;25.20;54.88;100201.33;1694351;83;20178;-87
2021/07/24 08:50:06;;;;;;;;;;;;;;;25.25;54.81;100196.01;1688862;83;20167;-87
2021/07/24 08:52:36;;;;;;;;;;;;;;;25.29;54.72;100201.20;1702635;83;20163;-88
2021/07/24 08:55:05;;;;;;;;;;;;;;;25.43;54.96;100191.66;1691358;82;20175;-88
2021/07/24 08:57:34;;;;;;;;;;;;;;;25.51;55.23;100189.55;1682456;82;21331;-92
2021/07/24 09:00:05;;;;;;;;;;;;;;;25.63;55.39;100192.91;1698942;83;20154;-87
2021/07/24 09:02:30;;;;;;;;;;;;;;;25.66;54.91;100180.78;1702284;83;20550;-88
2021/07/24 09:04:57;;;;;;;;;;;;;;;25.72;54.44;100183.27;1691639;83;20152;-89
2021/07/24 09:07:27;;;;;;;;;;;;;;;25.86;54.22;100182.86;1691653;83;20667;-87
2021/07/24 09:09:55;;;;;;;;;;;;;;;25.90;53.27;100189.37;1688108;82;21169;-89
2021/07/24 09:12:21;;;;;;;;;;;;;;;25.97;52.04;100188.63;1702742;83;20129;-87
2021/07/24 09:14:47;;;;;;;;;;;;;;;25.99;51.83;100191.92;1697774;82;20199;-88
2021/07/24 09:17:12;;;;;;;;;;;;;;;25.96;51.32;100182.93;1695397;83;20766;-87
2021/07/24 09:19:38;;;;;;;;;;;;;;;25.93;51.48;100180.73;1702878;82;20150;-86
2021/07/24 09:22:03;;;;;;;;;;;;;;;25.93;50.89;100182.92;1701355;82;21255;-87
2021/07/24 09:24:29;;;;;;;;;;;;;;;25.99;51.14;100179.73;1690875;83;20262;-87
2021/07/24 09:26:55;;;;;;;;;;;;;;;25.95;50.55;100178.61;1696528;82;20159;-90
2021/07/24 09:29:21;;;;;;;;;;;;;;;25.97;51.14;100177.80;1698243;83;20776;-85
2021/07/24 09:31:52;;;;;;;;;;;;;;;26.05;50.95;100175.20;1709091;82;20350;-88
2021/07/24 09:34:29;;;;;;;;;;;;;;;26.13;50.38;100176.90;1711418;82;20290;-84
2021/07/24 09:36:58;;;;;;;;;;;;;;;26.05;50.28;100184.13;1685550;83;20132;-87
2021/07/24 09:39:25;;;;;;;;;;;;;;;26.11;50.10;100179.58;1698772;82;20183;-88
2021/07/24 09:42:02;;;;;;;;;;;;;;;26.13;49.92;100172.84;1674337;83;20207;-88
2021/07/24 09:44:30;;;;;;;;;;;;;;;26.20;49.85;100175.31;1702888;82;20844;-86
2021/07/24 09:47:01;;;;;;;;;;;;;;;26.13;49.87;100175.55;1717089;82;21957;-87
2021/07/24 09:49:45;;;;;;;;;;;;;;;26.15;48.74;100170.68;1707189;82;20162;-87
2021/07/24 09:52:31;;;;;;;;;;;;;;;25.97;49.65;100165.12;1691897;82;20299;-85
2021/07/24 09:55:17;;;;;;;;;;;;;;;26.11;50.28;100167.39;1694686;82;20237;-86
2021/07/24 09:57:49;;;;;;;;;;;;;;;26.30;50.22;100167.28;1693199;82;20291;-84
2021/07/24 10:00:38;;;;;;;;;;;;;;;26.38;49.73;100164.59;1694673;83;21010;-87
2021/07/24 10:03:05;;;;;;;;;;;;;;;26.49;48.93;100162.24;1685856;82;20186;-84
2021/07/24 10:05:44;;;;;;;;;;;;;;;26.63;49.08;100157.17;1695502;82;20258;-85
2021/07/24 10:08:17;;;;;;;;;;;;;;;26.73;49.12;100153.72;1701130;83;20173;-86
2021/07/24 10:10:45;;;;;;;;;;;;;;;26.80;47.62;100152.95;1669792;83;20530;-84
2021/07/24 10:13:20;;;;;;;;;;;;;;;26.91;47.81;100157.05;1691409;83;20180;-86
2021/07/24 10:15:48;;;;;;;;;;;;;;;26.86;45.97;100153.25;1686255;82;20170;-87
2021/07/24 10:18:19;;;;;;;;;;;;;;;26.89;45.85;100149.73;1698804;82;20280;-87
2021/07/24 10:20:54;;;;;;;;;;;;;;;27.00;46.61;100150.03;1689858;82;20185;-87
2021/07/24 10:23:28;;;;;;;;;;;;;;;27.13;46.72;100152.26;1694003;82;20245;-88
2021/07/24 10:26:14;;;;;;;;;;;;;;;27.26;46.65;100155.00;1681758;83;20179;-85
2021/07/24 10:29:01;;;;;;;;;;;;;;;27.36;46.54;100158.30;1687872;83;21210;-88
2021/07/24 10:31:29;;;;;;;;;;;;;;;27.49;46.97;100162.41;1689945;83;20163;-86
2021/07/24 10:34:01;;;;;;;;;;;;;;;27.62;47.17;100154.28;1666868;84;39438;-89
2021/07/24 10:36:39;;;;;;;;;;;;;;;27.41;44.69;100155.61;1689619;83;20208;-87
2021/07/24 10:39:07;;;;;;;;;;;;;;;27.33;44.60;100152.05;1687811;83;20755;-88
2021/07/24 10:41:36;;;;;;;;;;;;;;;27.39;45.15;100149.63;1694562;82;21259;-86
2021/07/24 10:44:13;;;;;;;;;;;;;;;27.41;45.02;100147.48;1696530;83;20143;-88
2021/07/24 10:46:46;;;;;;;;;;;;;;;27.37;46.13;100147.73;1691795;83;20991;-90
2021/07/24 10:49:23;;;;;;;;;;;;;;;27.38;46.84;100145.30;1684401;82;20188;-88
2021/07/24 10:52:06;;;;;;;;;;;;;;;27.43;46.67;100142.59;1658066;84;21914;-87
2021/07/24 10:54:45;;;;;;;;;;;;;;;27.47;46.61;100146.41;1691952;83;20278;-88
2021/07/24 10:57:11;;;;;;;;;;;;;;;27.48;47.20;100142.59;1662001;82;20322;-85
2021/07/24 10:59:37;;;;;;;;;;;;;;;27.47;47.89;100139.63;1694946;82;20119;-88
2021/07/24 11:02:03;;;;;;;;;;;;;;;27.53;46.39;100142.62;1695666;83;20190;-86
2021/07/24 11:04:42;;;;;;;;;;;;;;;27.57;45.89;100142.33;1701308;83;21126;-92
2021/07/24 11:07:26;;;;;;;;;;;;;;;27.54;45.43;100144.22;1693220;82;20489;-86
2021/07/24 11:09:55;;;;;;;;;;;;;;;27.49;45.37;100140.71;1706610;82;20163;-90
2021/07/24 11:12:37;;;;;;;;;;;;;;;27.48;45.57;100137.16;1690436;83;20875;-89
2021/07/24 11:15:05;;;;;;;;;;;;;;;27.37;47.12;100141.76;1692555;82;20993;-89
2021/07/24 11:17:31;;;;;;;;;;;;;;;27.54;47.15;100133.38;1694447;82;21099;-84
2021/07/24 11:20:00;;;;;;;;;;;;;;;27.45;47.04;100130.92;1693471;83;20146;-85
2021/07/24 11:22:27;;;;;;;;;;;;;;;27.19;47.59;100137.64;1695730;83;20148;-86
2021/07/24 11:24:56;;;;;;;;;;;;;;;27.34;47.65;100132.00;1702717;83;20186;-85
2021/07/24 11:27:27;;;;;;;;;;;;;;;27.32;48.24;100131.46;1694645;82;20193;-86
2021/07/24 11:30:08;;;;;;;;;;;;;;;27.36;48.19;100136.60;1694579;83;21126;-87
2021/07/24 11:32:36;;;;;;;;;;;;;;;27.47;48.02;100135.55;1692329;82;20251;-86
2021/07/24 11:35:05;;;;;;;;;;;;;;;27.43;47.86;100139.88;1703607;82;20144;-86
2021/07/24 11:37:41;;;;;;;;;;;;;;;27.39;48.40;100145.03;1690558;82;20198;-84
2021/07/24 11:40:12;;;;;;;;;;;;;;;27.27;48.86;100143.08;1702181;83;20174;-86
2021/07/24 11:42:37;;;;;;;;;;;;;;;27.36;48.72;100144.73;1687456;82;20128;-85
2021/07/24 11:45:04;;;;;;;;;;;;;;;27.34;48.73;100144.20;1694308;82;20300;-84
2021/07/24 11:47:29;;;;;;;;;;;;;;;27.37;49.01;100143.11;1692069;83;20470;-77
2021/07/24 11:50:16;;;;;;;;;;;;;;;27.30;49.48;100143.06;1702907;83;20127;-76
2021/07/24 11:52:42;;;;;;;;;;;;;;;27.34;49.60;100150.43;1699776;82;20179;-78
2021/07/24 11:55:09;;;;;;;;;;;;;;;27.16;50.26;100148.18;1708380;82;21016;-78
2021/07/24 11:57:35;;;;;;;;;;;;;;;27.14;49.59;100148.45;1692044;82;20176;-77
2021/07/24 12:00:00;;;;;;;;;;;;;;;27.07;49.40;100142.48;1699776;82;20484;-77
2021/07/24 12:02:26;;;;;;;;;;;;;;;27.02;49.57;100150.60;1699971;82;20142;-80
2021/07/24 12:04:51;;;;;;;;;;;;;;;27.12;49.33;100139.77;1698766;82;20158;-76
2021/07/24 12:07:17;;;;;;;;;;;;;;;27.17;49.22;100138.42;1696520;83;21116;-79
2021/07/24 12:09:43;;;;;;;;;;;;;;;27.11;50.13;100140.84;1673505;82;20233;-77
2021/07/24 12:12:10;;;;;;;;;;;;;;;27.00;49.50;100133.77;1695840;83;20165;-78
2021/07/24 12:14:36;;;;;;;;;;;;;;;27.05;50.09;100133.81;1701673;82;20234;-77
2021/07/24 12:17:06;;;;;;;;;;;;;;;27.13;50.05;100133.28;1700632;83;20190;-77
2021/07/24 12:19:40;;;;;;;;;;;;;;;27.19;50.21;100126.80;1690166;82;21283;-77
2021/07/24 12:22:18;;;;;;;;;;;;;;;27.36;49.66;100131.17;1685121;83;20206;-77
2021/07/24 12:24:44;;;;;;;;;;;;;;;27.50;49.53;100125.52;1697188;83;20202;-81
2021/07/24 12:27:11;;;;;;;;;;;;;;;27.58;48.90;100130.41;1700036;83;20197;-78
2021/07/24 12:30:03;;;;;;;;;;;;;;;27.66;49.34;100121.47;1697639;82;20201;-78
2021/07/24 12:32:41;;;;;;;;;;;;;;;27.75;49.84;100119.84;1687695;82;20178;-79
2021/07/24 12:35:16;;;;;;;;;;;;;;;27.92;48.87;100117.66;1689532;83;20308;-78
2021/07/24 12:37:42;;;;;;;;;;;;;;;27.91;48.64;100118.73;1683018;82;20195;-79
2021/07/24 12:40:17;;;;;;;;;;;;;;;28.18;48.90;100117.64;1693075;82;20786;-78
2021/07/24 12:42:43;;;;;;;;;;;;;;;28.25;49.08;100119.53;1692341;83;20234;-79
2021/07/24 12:45:28;;;;;;;;;;;;;;;28.36;48.32;100116.80;1690300;82;21209;-78